Bluffton, South Carolina
Current Conditions -  °F | °C
As of 2:35 AM on Monday 22 Dec 2014 (Local Time) from KHXD Reporting Station
Haze Haze  
Wind Chill: 50°   Ceiling: 300
Heat Index: 50°   Visibility: 4mi
Dew Point: 48°   Wind: 6mph
Humidity: 94%   Direction: 360°N
Pressure: 30.06"   Gusts: NA
Location:  32.24°N, 80.86°W
Report Text: KHXD 220735Z AUTO 36005KT 4SM BR OVC003 10/09 A3006 RMK AO2 P0000
Loading
Personal Weather Stations






























Interactive Weather Map New forecast layout! Learn more

10-Day Weather Forecast

Advertisements
Track Severe Weather on mobile